createdAt,value
2022-12-01T00:02:19.883Z,102804.84
2022-12-01T00:04:48.163Z,102801.78
2022-12-01T00:07:14.503Z,102803.19
2022-12-01T00:09:40.777Z,102798.69
2022-12-01T00:12:07.182Z,102790.56
2022-12-01T00:14:33.493Z,102790.31
2022-12-01T00:16:59.825Z,102801.88
2022-12-01T00:19:27.649Z,102790.44
2022-12-01T00:21:54.070Z,102794.09
2022-12-01T00:24:20.376Z,102795.16
2022-12-01T00:26:46.620Z,102792.31
2022-12-01T00:29:12.952Z,102787.00
2022-12-01T00:31:39.329Z,102800.22
2022-12-01T00:34:10.953Z,102795.03
2022-12-01T00:36:38.173Z,102781.47
2022-12-01T00:39:04.538Z,102795.88
2022-12-01T00:41:30.809Z,102797.78
2022-12-01T00:43:57.133Z,102780.88
2022-12-01T00:46:23.440Z,102798.22
2022-12-01T00:48:49.791Z,102794.22
2022-12-01T00:51:16.254Z,102796.09
2022-12-01T00:53:42.603Z,102803.53
2022-12-01T00:56:08.914Z,102800.38
2022-12-01T00:58:35.261Z,102796.00
2022-12-01T01:01:02.098Z,102805.56
2022-12-01T01:03:29.528Z,102805.41
2022-12-01T01:05:56.363Z,102803.91
2022-12-01T01:08:22.757Z,102801.88
2022-12-01T01:10:49.486Z,102806.13
2022-12-01T01:13:15.865Z,102795.50
2022-12-01T01:15:42.148Z,102806.59
2022-12-01T01:18:08.603Z,102810.28
2022-12-01T01:20:34.938Z,102798.09
2022-12-01T01:23:01.207Z,102815.25
2022-12-01T01:25:27.800Z,102798.22
2022-12-01T01:27:54.183Z,102810.88
2022-12-01T01:30:20.495Z,102809.31
2022-12-01T01:32:47.078Z,102798.81
2022-12-01T01:35:13.466Z,102802.22
2022-12-01T01:37:39.849Z,102815.69
2022-12-01T01:40:06.697Z,102804.13
2022-12-01T01:42:33.027Z,102812.88
2022-12-01T01:44:59.328Z,102823.00
2022-12-01T01:47:30.723Z,102814.78
2022-12-01T01:50:01.198Z,102812.41
2022-12-01T01:52:28.038Z,102800.69
2022-12-01T01:54:55.659Z,102815.97
2022-12-01T01:57:31.350Z,102829.41
2022-12-01T02:00:04.392Z,102818.78
2022-12-01T02:02:30.911Z,102815.59
2022-12-01T02:05:01.547Z,102820.06
2022-12-01T02:07:28.647Z,102823.75
2022-12-01T02:09:56.430Z,102820.19
2022-12-01T02:12:44.607Z,102836.84
2022-12-01T02:15:29.953Z,102823.75
2022-12-01T02:18:14.369Z,102820.19
2022-12-01T02:20:46.759Z,102824.69
2022-12-01T02:23:47.643Z,102823.03
2022-12-01T02:26:29.254Z,102812.75
2022-12-01T02:29:31.111Z,102818.56
2022-12-01T02:32:17.056Z,102806.75
2022-12-01T02:34:52.102Z,102805.31
2022-12-01T02:37:35.003Z,102802.16
2022-12-01T02:40:14.073Z,102803.66
2022-12-01T02:43:12.760Z,102817.25
2022-12-01T02:45:50.879Z,102810.75
2022-12-01T02:48:31.246Z,102798.59
2022-12-01T02:51:02.653Z,102812.16
2022-12-01T02:53:29.296Z,102804.63
2022-12-01T02:55:58.096Z,102819.03
2022-12-01T02:58:24.929Z,102821.38
2022-12-01T03:01:06.479Z,102815.34
2022-12-01T03:04:31.376Z,102815.59
2022-12-01T03:07:18.363Z,102820.66
2022-12-01T03:09:50.832Z,102830.94
2022-12-01T03:12:22.929Z,102818.06
2022-12-01T03:14:58.853Z,102827.16
2022-12-01T03:17:31.030Z,102819.94
2022-12-01T03:20:05.048Z,102812.75
2022-12-01T03:22:41.910Z,102822.78
2022-12-01T03:25:11.867Z,102820.19
2022-12-01T03:27:44.136Z,102820.31
2022-12-01T03:30:17.636Z,102797.66
2022-12-01T03:32:48.472Z,102822.78
2022-12-01T03:35:23.692Z,102803.44
2022-12-01T03:37:54.968Z,102817.59
2022-12-01T03:40:25.592Z,102815.34
2022-12-01T03:42:59.629Z,102806.25
2022-12-01T03:45:39.408Z,102824.66
2022-12-01T03:48:06.721Z,102807.22
2022-12-01T03:50:45.973Z,102815.34
2022-12-01T03:53:24.231Z,102821.16
2022-12-01T03:56:02.998Z,102813.13
2022-12-01T03:58:37.688Z,102819.94
2022-12-01T04:01:05.074Z,102813.22
2022-12-01T04:03:31.807Z,102819.47
2022-12-01T04:05:58.209Z,102814.53
2022-12-01T04:08:24.692Z,102813.94
2022-12-01T04:10:51.045Z,102809.09
2022-12-01T04:13:17.273Z,102819.59
2022-12-01T04:15:44.032Z,102814.66
2022-12-01T04:18:10.430Z,102824.09
2022-12-01T04:20:36.721Z,102822.44
2022-12-01T04:23:03.064Z,102822.78
2022-12-01T04:25:29.335Z,102824.44
2022-12-01T04:27:55.631Z,102819.50
2022-12-01T04:30:21.943Z,102831.06
2022-12-01T04:32:48.279Z,102828.44
2022-12-01T04:35:14.629Z,102833.16
2022-12-01T04:37:40.983Z,102836.38
2022-12-01T04:40:07.897Z,102836.72
2022-12-01T04:42:34.244Z,102837.19
2022-12-01T04:45:00.578Z,102831.28
2022-12-01T04:47:26.995Z,102812.66
2022-12-01T04:49:53.894Z,102817.84
2022-12-01T04:52:20.258Z,102824.66
2022-12-01T04:54:46.487Z,102833.75
2022-12-01T04:57:12.819Z,102819.47
2022-12-01T04:59:39.144Z,102832.72
2022-12-01T05:02:05.572Z,102824.66
2022-12-01T05:04:32.090Z,102823.25
2022-12-01T05:06:58.428Z,102821.03
2022-12-01T05:09:24.663Z,102827.53
2022-12-01T05:11:51.013Z,102812.88
2022-12-01T05:14:17.288Z,102826.69
2022-12-01T05:16:43.745Z,102817.84
2022-12-01T05:19:10.182Z,102826.34
2022-12-01T05:21:36.476Z,102833.88
2022-12-01T05:24:02.835Z,102814.19
2022-12-01T05:26:29.103Z,102833.75
2022-12-01T05:28:55.415Z,102831.44
2022-12-01T05:31:21.719Z,102836.25
2022-12-01T05:33:48.099Z,102825.38
2022-12-01T05:36:14.529Z,102823.63
2022-12-01T05:38:40.941Z,102842.28
2022-12-01T05:41:07.359Z,102830.47
2022-12-01T05:43:33.745Z,102821.16
2022-12-01T05:46:00.229Z,102832.25
2022-12-01T05:48:26.671Z,102824.66
2022-12-01T05:50:53.295Z,102823.50
2022-12-01T05:53:19.713Z,102833.66
2022-12-01T05:55:46.246Z,102828.22
2022-12-01T05:58:13.664Z,102829.38
2022-12-01T06:00:45.770Z,102817.03
2022-12-01T06:03:13.248Z,102820.66
2022-12-01T06:05:39.756Z,102834.13
2022-12-01T06:08:06.129Z,102838.25
2022-12-01T06:10:32.377Z,102828.81
2022-12-01T06:12:58.686Z,102834.38
2022-12-01T06:15:24.949Z,102841.09
2022-12-01T06:17:51.290Z,102828.34
2022-12-01T06:20:17.563Z,102847.13
2022-12-01T06:22:43.867Z,102851.38
2022-12-01T06:25:10.241Z,102839.19
2022-12-01T06:27:36.609Z,102837.19
2022-12-01T06:30:04.011Z,102858.22
2022-12-01T06:32:30.327Z,102855.38
2022-12-01T06:34:56.636Z,102828.09
2022-12-01T06:37:23.050Z,102841.78
2022-12-01T06:39:49.545Z,102826.31
2022-12-01T06:42:16.002Z,102834.47
2022-12-01T06:44:42.267Z,102843.81
2022-12-01T06:47:08.593Z,102835.41
2022-12-01T06:49:34.956Z,102835.41
2022-12-01T06:52:01.453Z,102851.94
2022-12-01T06:54:27.783Z,102837.78
2022-12-01T06:56:54.041Z,102854.69
2022-12-01T06:59:20.667Z,102852.31
2022-12-01T07:01:47.220Z,102856.56
2022-12-01T07:04:13.664Z,102856.69
2022-12-01T07:06:39.901Z,102869.06
2022-12-01T07:09:06.230Z,102867.66
2022-12-01T07:11:32.493Z,102879.34
2022-12-01T07:13:58.897Z,102876.63
2022-12-01T07:16:25.277Z,102875.44
2022-12-01T07:18:51.712Z,102871.19
2022-12-01T07:21:17.977Z,102883.00
2022-12-01T07:23:44.297Z,102881.56
2022-12-01T07:26:15.387Z,102881.56
2022-12-01T07:28:42.408Z,102885.25
2022-12-01T07:31:17.512Z,102882.03
2022-12-01T07:33:43.891Z,102879.81
2022-12-01T07:36:10.820Z,102889.16
2022-12-01T07:38:38.249Z,102879.13
2022-12-01T07:41:06.437Z,102888.06
2022-12-01T07:43:33.499Z,102893.88
2022-12-01T07:46:05.049Z,102897.19
2022-12-01T07:48:32.608Z,102888.91
2022-12-01T07:50:58.920Z,102903.31
2022-12-01T07:53:25.301Z,102894.69
2022-12-01T07:55:51.587Z,102897.19
2022-12-01T07:58:17.937Z,102883.13
2022-12-01T08:00:44.209Z,102904.00
2022-12-01T08:03:10.652Z,102896.59
2022-12-01T08:05:37.042Z,102898.72
2022-12-01T08:08:03.385Z,102917.97
2022-12-01T08:10:29.747Z,102894.56
2022-12-01T08:12:56.057Z,102909.47
2022-12-01T08:15:22.424Z,102917.47
2022-12-01T08:17:48.729Z,102915.13
2022-12-01T08:20:18.494Z,102897.03
2022-12-01T08:22:48.781Z,102918.19
2022-12-01T08:25:15.081Z,102919.16
2022-12-01T08:27:41.366Z,102911.13
2022-12-01T08:30:08.421Z,102923.03
2022-12-01T08:32:34.761Z,102898.59
2022-12-01T08:35:01.027Z,102916.81
2022-12-01T08:37:27.395Z,102918.09
2022-12-01T08:39:53.669Z,102913.84
2022-12-01T08:42:20.029Z,102912.78
2022-12-01T08:44:46.409Z,102910.06
2022-12-01T08:47:17.314Z,102909.97
2022-12-01T08:49:45.009Z,102914.78
2022-12-01T08:52:11.292Z,102917.16
2022-12-01T08:54:37.596Z,102915.13
2022-12-01T08:57:03.906Z,102906.84
2022-12-01T08:59:30.415Z,102904.25
2022-12-01T09:01:56.766Z,102907.00
2022-12-01T09:04:24.218Z,102919.41
2022-12-01T09:06:52.153Z,102913.25
2022-12-01T09:09:24.253Z,102914.44
2022-12-01T09:11:50.815Z,102920.69
2022-12-01T09:14:17.301Z,102922.00
2022-12-01T09:16:46.110Z,102926.22
2022-12-01T09:19:14.079Z,102925.19
2022-12-01T09:21:41.901Z,102920.94
2022-12-01T09:24:10.946Z,102928.84
2022-12-01T09:26:37.282Z,102917.97
2022-12-01T09:29:06.373Z,102918.34
2022-12-01T09:31:33.820Z,102935.94
2022-12-01T09:34:02.446Z,102934.50
2022-12-01T09:36:30.452Z,102932.88
2022-12-01T09:38:57.122Z,102913.84
2022-12-01T09:41:34.932Z,102926.16
2022-12-01T09:44:03.967Z,102925.06
2022-12-01T09:46:40.924Z,102913.72
2022-12-01T09:49:17.212Z,102919.28
2022-12-01T09:51:43.673Z,102918.22
2022-12-01T09:54:13.778Z,102920.59
2022-12-01T09:56:45.145Z,102920.22
2022-12-01T09:59:20.647Z,102920.69
2022-12-01T10:01:52.873Z,102911.50
2022-12-01T10:04:31.390Z,102915.13
2022-12-01T10:07:04.283Z,102912.53
2022-12-01T10:09:46.068Z,102903.22
2022-12-01T10:12:18.670Z,102897.31
2022-12-01T10:14:46.989Z,102902.84
2022-12-01T10:17:42.424Z,102893.41
2022-12-01T10:20:17.518Z,102891.03
2022-12-01T10:23:08.883Z,102905.66
2022-12-01T10:25:58.382Z,102891.97
2022-12-01T10:28:52.606Z,102898.34
2022-12-01T10:31:52.852Z,102897.88
2022-12-01T10:34:29.321Z,102899.00
2022-12-01T10:36:56.829Z,102884.25
2022-12-01T10:39:44.584Z,102897.81
2022-12-01T10:42:26.352Z,102889.06
2022-12-01T10:44:54.588Z,102871.47
2022-12-01T10:47:24.587Z,102880.78
2022-12-01T10:49:52.225Z,102882.56
2022-12-01T10:52:36.302Z,102887.00
2022-12-01T10:55:06.235Z,102882.78
2022-12-01T10:57:32.639Z,102867.31
2022-12-01T11:00:06.578Z,102890.31
2022-12-01T11:02:33.337Z,102874.63
2022-12-01T11:05:20.800Z,102881.50
2022-12-01T11:07:48.233Z,102888.59
2022-12-01T11:10:25.692Z,102883.97
2022-12-01T11:13:16.771Z,102883.72
2022-12-01T11:15:58.798Z,102886.47
2022-12-01T11:18:27.846Z,102884.56
2022-12-01T11:21:05.508Z,102884.06
2022-12-01T11:23:32.045Z,102865.16
2022-12-01T11:26:26.313Z,102880.13
2022-12-01T11:28:56.244Z,102855.28
2022-12-01T11:31:35.835Z,102862.03
2022-12-01T11:34:02.410Z,102866.06
2022-12-01T11:36:35.705Z,102871.69
2022-12-01T11:39:02.449Z,102861.78
2022-12-01T11:41:40.482Z,102852.34
2022-12-01T11:47:25.717Z,102854.09
2022-12-01T11:50:00.837Z,102848.38
2022-12-01T11:52:33.100Z,102839.88
2022-12-01T11:55:18.756Z,102845.34
2022-12-01T11:57:49.400Z,102826.63
2022-12-01T12:00:22.097Z,102837.22
2022-12-01T12:03:13.273Z,102840.19
2022-12-01T12:05:52.848Z,102824.97
2022-12-01T12:08:48.934Z,102840.34
2022-12-01T12:11:19.956Z,102833.22
2022-12-01T12:13:59.130Z,102831.44
2022-12-01T12:16:38.159Z,102827.88
2022-12-01T12:20:06.058Z,102825.16
2022-12-01T12:22:33.734Z,102833.28
2022-12-01T12:25:21.711Z,102831.63
2022-12-01T12:28:34.028Z,102828.06
2022-12-01T12:31:19.194Z,102823.91
2022-12-01T12:34:17.858Z,102826.28
2022-12-01T12:36:51.446Z,102823.81
2022-12-01T12:39:29.692Z,102827.81
2022-12-01T12:41:57.128Z,102828.53
2022-12-01T12:44:23.481Z,102821.53
2022-12-01T12:46:52.610Z,102819.31
2022-12-01T12:49:32.232Z,102817.88
2022-12-01T12:52:35.664Z,102814.31
2022-12-01T12:55:13.920Z,102796.00
2022-12-01T12:57:51.943Z,102805.41
2022-12-01T13:00:25.147Z,102806.91
2022-12-01T13:03:02.058Z,102798.53
2022-12-01T13:05:36.606Z,102806.69
2022-12-01T13:08:11.341Z,102796.00
2022-12-01T13:10:46.778Z,102814.53
2022-12-01T13:13:37.341Z,102812.88
2022-12-01T13:16:07.114Z,102803.81
2022-12-01T13:18:49.543Z,102803.09
2022-12-01T13:21:22.114Z,102801.19
2022-12-01T13:23:51.384Z,102802.75
2022-12-01T13:26:20.016Z,102800.50
2022-12-01T13:28:51.512Z,102795.94
2022-12-01T13:31:19.919Z,102796.72
2022-12-01T13:33:57.921Z,102796.09
2022-12-01T13:39:21.574Z,102795.19
2022-12-01T13:42:07.400Z,102791.88
2022-12-01T13:44:38.813Z,102795.41
2022-12-01T13:47:32.838Z,102795.03
2022-12-01T13:50:37.887Z,102796.38
2022-12-01T13:53:12.201Z,102796.16
2022-12-01T13:56:03.040Z,102790.31
2022-12-01T13:58:32.398Z,102778.78
2022-12-01T14:01:21.006Z,102791.97
2022-12-01T14:03:57.037Z,102789.44
2022-12-01T14:06:37.030Z,102780.22
2022-12-01T14:09:16.932Z,102786.41
2022-12-01T14:11:56.661Z,102774.13
2022-12-01T14:14:26.335Z,102792.03
2022-12-01T14:16:58.613Z,102793.69
2022-12-01T14:19:49.159Z,102791.59
2022-12-01T14:22:33.824Z,102772.53
2022-12-01T14:25:01.365Z,102793.94
2022-12-01T14:27:36.545Z,102778.25
2022-12-01T14:30:40.228Z,102787.84
2022-12-01T14:33:44.274Z,102795.97
2022-12-01T14:36:35.612Z,102800.59
2022-12-01T14:39:15.897Z,102788.78
2022-12-01T14:41:49.677Z,102793.50
2022-12-01T14:44:37.939Z,102801.94
2022-12-01T14:47:10.460Z,102791.31
2022-12-01T14:49:47.177Z,102797.34
2022-12-01T14:52:24.230Z,102797.47
2022-12-01T14:54:51.834Z,102807.13
2022-12-01T14:57:24.130Z,102797.66
2022-12-01T15:00:12.631Z,102802.44
2022-12-01T15:02:46.708Z,102798.44
2022-12-01T15:05:16.113Z,102795.19
2022-12-01T15:07:45.810Z,102796.66
2022-12-01T15:10:18.908Z,102808.19
2022-12-01T15:12:45.879Z,102805.59
2022-12-01T15:15:24.175Z,102790.63
2022-12-01T15:17:52.317Z,102789.06
2022-12-01T15:20:31.840Z,102790.97
2022-12-01T15:22:58.835Z,102794.53
2022-12-01T15:25:28.678Z,102794.88
2022-12-01T15:28:19.267Z,102811.56
2022-12-01T15:30:49.387Z,102798.94
2022-12-01T15:33:35.380Z,102788.63
2022-12-01T15:36:03.780Z,102800.69
2022-12-01T15:38:35.109Z,102800.44
2022-12-01T15:43:59.929Z,102795.28
2022-12-01T15:46:32.259Z,102788.16
2022-12-01T15:49:19.427Z,102804.34
2022-12-01T15:51:48.213Z,102785.84
2022-12-01T15:54:33.404Z,102796.66
2022-12-01T15:57:00.667Z,102804.13
2022-12-01T15:59:43.929Z,102809.31
2022-12-01T16:02:25.616Z,102800.34
2022-12-01T16:05:02.629Z,102807.66
2022-12-01T16:08:10.900Z,102790.34
2022-12-01T16:10:34.783Z,102798.56
2022-12-01T16:13:38.423Z,102802.13
2022-12-01T16:16:39.162Z,102801.16
2022-12-01T16:19:11.366Z,102801.56
2022-12-01T16:21:53.130Z,102802.38
2022-12-01T16:24:33.702Z,102807.34
2022-12-01T16:27:03.845Z,102798.00
2022-12-01T16:29:43.483Z,102792.09
2022-12-01T16:32:20.908Z,102788.44
2022-12-01T16:34:48.191Z,102785.94
2022-12-01T16:37:15.051Z,102781.84
2022-12-01T16:39:41.877Z,102799.38
2022-12-01T16:42:12.833Z,102786.19
2022-12-01T16:44:39.222Z,102782.28
2022-12-01T16:47:18.964Z,102799.38
2022-12-01T16:49:45.316Z,102797.75
2022-12-01T16:54:58.247Z,102791.88
2022-12-01T16:57:24.573Z,102800.97
2022-12-01T16:59:50.857Z,102800.25
2022-12-01T17:02:17.276Z,102792.25
2022-12-01T17:04:43.643Z,102787.16
2022-12-01T17:07:09.920Z,102803.94
2022-12-01T17:09:36.293Z,102793.91
2022-12-01T17:12:02.796Z,102788.00
2022-12-01T17:14:29.267Z,102783.97
2022-12-01T17:16:57.374Z,102783.28
2022-12-01T17:19:23.711Z,102794.53
2022-12-01T17:21:49.953Z,102799.47
2022-12-01T17:24:19.048Z,102779.91
2022-12-01T17:26:45.748Z,102798.88
2022-12-01T17:29:11.985Z,102797.81
2022-12-01T17:31:38.430Z,102793.94
2022-12-01T17:34:04.846Z,102799.03
2022-12-01T17:36:31.103Z,102801.34
2022-12-01T17:38:57.494Z,102803.97
2022-12-01T17:41:23.949Z,102786.38
2022-12-01T17:43:50.349Z,102793.13
2022-12-01T17:46:16.978Z,102807.38
2022-12-01T17:48:45.192Z,102801.34
2022-12-01T17:51:13.257Z,102803.63
2022-12-01T17:53:39.892Z,102815.06
2022-12-01T17:56:10.700Z,102813.88
2022-12-01T17:58:37.768Z,102798.16
2022-12-01T18:01:05.048Z,102795.56
2022-12-01T18:03:31.861Z,102795.75
2022-12-01T18:06:00.558Z,102800.34
2022-12-01T18:08:29.021Z,102794.44
2022-12-01T18:10:55.430Z,102809.06
2022-12-01T18:13:22.799Z,102807.97
2022-12-01T18:15:49.421Z,102807.75
2022-12-01T18:18:15.803Z,102795.34
2022-12-01T18:20:43.058Z,102805.84
2022-12-01T18:23:11.042Z,102797.84
2022-12-01T18:25:38.595Z,102806.47
2022-12-01T18:28:05.868Z,102813.06
2022-12-01T18:30:35.353Z,102810.84
2022-12-01T18:33:01.727Z,102798.94
2022-12-01T18:35:31.765Z,102797.13
2022-12-01T18:37:58.387Z,102803.03
2022-12-01T18:40:24.717Z,102801.97
2022-12-01T18:42:51.055Z,102812.94
2022-12-01T18:45:21.005Z,102806.09
2022-12-01T18:47:47.856Z,102804.13
2022-12-01T18:50:14.176Z,102808.94
2022-12-01T18:52:40.509Z,102798.06
2022-12-01T18:55:06.903Z,102808.34
2022-12-01T18:57:33.329Z,102805.44
2022-12-01T18:59:59.682Z,102806.38
2022-12-01T19:02:26.044Z,102810.38
2022-12-01T19:04:52.614Z,102805.66
2022-12-01T19:07:19.203Z,102793.44
2022-12-01T19:09:45.487Z,102805.78
2022-12-01T19:12:11.845Z,102804.53
2022-12-01T19:14:38.113Z,102806.06
2022-12-01T19:17:04.463Z,102809.72
2022-12-01T19:19:35.752Z,102813.25
2022-12-01T19:22:03.837Z,102809.63
2022-12-01T19:24:30.121Z,102812.81
2022-12-01T19:26:56.488Z,102815.66
2022-12-01T19:29:22.752Z,102818.47
2022-12-01T19:31:49.117Z,102804.56
2022-12-01T19:34:15.420Z,102813.53
2022-12-01T19:36:41.753Z,102789.22
2022-12-01T19:39:08.354Z,102821.22
2022-12-01T19:41:34.953Z,102806.72
2022-12-01T19:44:01.286Z,102813.91
2022-12-01T19:46:27.746Z,102808.94
2022-12-01T19:48:59.584Z,102807.16
2022-12-01T19:51:28.809Z,102803.53
2022-12-01T19:53:55.142Z,102811.31
2022-12-01T19:56:21.957Z,102812.41
2022-12-01T19:58:48.325Z,102810.13
2022-12-01T20:01:15.445Z,102814.50
2022-12-01T20:03:44.882Z,102804.44
2022-12-01T20:06:14.144Z,102812.97
2022-12-01T20:08:40.684Z,102820.41
2022-12-01T20:11:07.589Z,102823.50
2022-12-01T20:13:35.860Z,102815.91
2022-12-01T20:16:03.164Z,102820.91
2022-12-01T20:18:29.732Z,102814.75
2022-12-01T20:21:08.940Z,102822.09
2022-12-01T20:23:35.854Z,102809.56
2022-12-01T20:26:04.920Z,102795.16
2022-12-01T20:28:32.218Z,102795.41
2022-12-01T20:30:59.237Z,102808.72
2022-12-01T20:33:27.135Z,102807.53
2022-12-01T20:35:53.669Z,102816.19
2022-12-01T20:38:27.410Z,102808.97
2022-12-01T20:40:54.340Z,102804.59
2022-12-01T20:43:20.654Z,102817.38
2022-12-01T20:45:47.165Z,102818.44
2022-12-01T20:48:14.173Z,102822.06
2022-12-01T20:50:40.496Z,102809.94
2022-12-01T20:53:07.109Z,102803.44
2022-12-01T20:55:35.292Z,102825.63
2022-12-01T20:58:01.600Z,102816.53
2022-12-01T21:00:28.362Z,102820.69
2022-12-01T21:02:54.753Z,102819.00
2022-12-01T21:05:21.015Z,102816.66
2022-12-01T21:07:47.349Z,102811.59
2022-12-01T21:10:19.660Z,102805.91
2022-12-01T21:12:51.671Z,102808.41
2022-12-01T21:15:26.885Z,102787.25
2022-12-01T21:17:56.440Z,102775.34
2022-12-01T21:20:28.733Z,102774.03
2022-12-01T21:23:00.952Z,102778.88
2022-12-01T21:25:27.330Z,102772.63
2022-12-01T21:27:56.113Z,102780.41
2022-12-01T21:30:23.548Z,102784.66
2022-12-01T21:32:50.146Z,102775.09
2022-12-01T21:35:20.497Z,102777.25
2022-12-01T21:37:48.743Z,102773.91
2022-12-01T21:40:23.882Z,102775.31
2022-12-01T21:42:50.813Z,102773.88
2022-12-01T21:45:29.495Z,102770.13
2022-12-01T21:48:06.193Z,102780.59
2022-12-01T21:50:32.566Z,102768.44
2022-12-01T21:52:58.946Z,102780.34
2022-12-01T21:55:25.147Z,102779.88
2022-12-01T21:57:53.331Z,102769.47
2022-12-01T22:00:28.008Z,102773.84
2022-12-01T22:03:09.777Z,102779.41
2022-12-01T22:06:01.014Z,102768.16
2022-12-01T22:08:34.961Z,102774.53
2022-12-01T22:11:11.715Z,102772.28
2022-12-01T22:13:37.972Z,102773.59
2022-12-01T22:16:04.482Z,102768.06
2022-12-01T22:18:39.139Z,102779.00
2022-12-01T22:21:23.223Z,102773.97
2022-12-01T22:23:59.117Z,102768.66
2022-12-01T22:26:25.821Z,102772.06
2022-12-01T22:28:58.724Z,102765.81
2022-12-01T22:31:25.992Z,102762.06
2022-12-01T22:34:02.825Z,102775.28
2022-12-01T22:36:31.810Z,102760.53
2022-12-01T22:38:58.677Z,102767.75
2022-12-01T22:41:26.699Z,102766.94
2022-12-01T22:43:59.037Z,102754.66
2022-12-01T22:46:32.337Z,102772.84
2022-12-01T22:49:13.450Z,102767.28
2022-12-01T22:51:41.901Z,102765.50
2022-12-01T22:54:14.202Z,102763.63
2022-12-01T22:56:49.655Z,102740.88
2022-12-01T22:59:20.356Z,102759.88
2022-12-01T23:01:52.891Z,102757.41
2022-12-01T23:04:49.057Z,102765.63
2022-12-01T23:07:29.978Z,102776.03
2022-12-01T23:10:11.147Z,102769.91
2022-12-01T23:12:38.154Z,102756.44
2022-12-01T23:15:34.914Z,102765.63
2022-12-01T23:18:21.343Z,102761.97
2022-12-01T23:20:50.382Z,102757.00
2022-12-01T23:23:20.288Z,102744.88
2022-12-01T23:25:49.324Z,102741.09
2022-12-01T23:28:15.995Z,102749.13
2022-12-01T23:30:44.806Z,102741.81
2022-12-01T23:33:25.865Z,102752.53
2022-12-01T23:36:21.438Z,102750.78
2022-12-01T23:38:51.604Z,102741.59
2022-12-01T23:41:33.299Z,102739.69
2022-12-01T23:44:32.329Z,102741.81
2022-12-01T23:46:58.770Z,102745.09
2022-12-01T23:49:29.331Z,102728.81
2022-12-01T23:51:59.028Z,102727.75
2022-12-01T23:54:28.934Z,102718.06
2022-12-01T23:56:57.953Z,102735.44
2022-12-01T23:59:25.216Z,102732.34
